Time;durP1;ratioP1;P1;durP2;ratioP2;P2;SDS_P1;SDS_P2;PMS_P1;PMS_P2;Temp;Humidity;BMP_temperature;BMP_pressure;BME280_temperature;BME280_humidity;BME280_pressure;Samples;Min_cycle;Max_cycle;Signal;HPM_P1;HPM_P2
2024/04/09 00:00:28;;;;;;;8.60;4.00;;;11.30;99.90;;;;;;5379984;26;20607;-81
2024/04/09 00:02:54;;;;;;;13.43;3.87;;;11.30;99.90;;;;;;5380610;26;20766;-81
2024/04/09 00:05:20;;;;;;;10.47;3.20;;;11.20;99.90;;;;;;5369193;26;20456;-82
2024/04/09 00:07:46;;;;;;;8.90;3.37;;;11.20;99.90;;;;;;5394012;26;20280;-81
2024/04/09 00:10:13;;;;;;;11.03;2.87;;;11.20;99.90;;;;;;5370457;26;20295;-82
2024/04/09 00:12:38;;;;;;;11.50;3.77;;;11.20;99.90;;;;;;5379940;26;20480;-82
2024/04/09 00:15:07;;;;;;;11.50;3.97;;;11.20;99.90;;;;;;5378223;26;20474;-83
2024/04/09 00:17:44;;;;;;;8.80;3.27;;;11.20;99.90;;;;;;5379667;26;20233;-79
2024/04/09 00:20:17;;;;;;;8.20;4.03;;;11.20;99.90;;;;;;5381578;26;20556;-82
2024/04/09 00:22:45;;;;;;;12.67;3.60;;;11.10;99.90;;;;;;5388817;26;20908;-82
2024/04/09 00:25:12;;;;;;;9.80;3.30;;;11.00;99.90;;;;;;5382583;26;20479;-82
2024/04/09 00:27:39;;;;;;;9.73;3.80;;;10.90;99.90;;;;;;5382958;26;20573;-82
2024/04/09 00:30:06;;;;;;;7.97;2.90;;;11.00;99.90;;;;;;5384706;26;20594;-82
2024/04/09 00:32:32;;;;;;;13.20;3.50;;;11.00;99.90;;;;;;5392535;26;20465;-81
2024/04/09 00:34:58;;;;;;;8.00;3.17;;;11.10;99.90;;;;;;5399416;26;20847;-82
2024/04/09 00:37:24;;;;;;;14.40;3.50;;;11.00;99.90;;;;;;5383414;26;20225;-82
2024/04/09 00:39:49;;;;;;;9.33;3.60;;;11.10;99.90;;;;;;5386613;26;20907;-83
2024/04/09 00:42:15;;;;;;;12.20;3.00;;;11.10;99.90;;;;;;5384238;26;20471;-83
2024/04/09 00:44:41;;;;;;;17.83;4.13;;;11.10;99.90;;;;;;5382328;26;20248;-82
2024/04/09 00:47:08;;;;;;;9.23;3.00;;;11.00;99.90;;;;;;5385303;26;20328;-80
2024/04/09 00:49:34;;;;;;;9.57;2.80;;;11.00;99.90;;;;;;5392185;26;20237;-83
2024/04/09 00:52:00;;;;;;;13.00;2.77;;;11.00;99.90;;;;;;5385109;26;20460;-83
2024/04/09 00:54:27;;;;;;;12.00;3.23;;;11.00;99.90;;;;;;5387035;26;20476;-85
2024/04/09 00:56:54;;;;;;;8.23;4.20;;;11.10;99.90;;;;;;5394879;26;20819;-83
2024/04/09 00:59:21;;;;;;;9.53;3.30;;;11.10;99.90;;;;;;5383528;26;20515;-83
2024/04/09 01:01:48;;;;;;;10.07;3.43;;;11.10;99.90;;;;;;5382225;26;20480;-84
2024/04/09 01:04:14;;;;;;;9.57;3.30;;;11.00;99.90;;;;;;5380185;26;20524;-83
2024/04/09 01:06:40;;;;;;;8.93;3.90;;;11.00;99.90;;;;;;5382648;26;20478;-83
2024/04/09 01:09:06;;;;;;;8.17;3.40;;;11.00;99.90;;;;;;5390216;26;20233;-83
2024/04/09 01:11:32;;;;;;;11.07;3.37;;;11.10;99.90;;;;;;5393023;26;20502;-83
2024/04/09 01:13:58;;;;;;;9.70;3.40;;;11.00;99.90;;;;;;5387705;26;20583;-81
2024/04/09 01:16:23;;;;;;;14.47;4.50;;;10.90;99.90;;;;;;5383406;26;20283;-83
2024/04/09 01:18:49;;;;;;;12.83;3.67;;;10.90;99.90;;;;;;5383746;26;21097;-85
2024/04/09 01:21:15;;;;;;;8.10;2.90;;;10.90;99.90;;;;;;5380870;26;20552;-82
2024/04/09 01:23:40;;;;;;;7.70;4.30;;;11.00;99.90;;;;;;5390773;26;20537;-82
2024/04/09 01:26:09;;;;;;;10.73;2.50;;;11.00;99.90;;;;;;5384107;26;20317;-83
2024/04/09 01:28:36;;;;;;;10.73;3.70;;;11.00;99.90;;;;;;5381117;26;20719;-83
2024/04/09 01:31:02;;;;;;;12.23;3.60;;;11.00;99.90;;;;;;5380783;26;20515;-83
2024/04/09 01:33:27;;;;;;;8.37;2.80;;;10.90;99.90;;;;;;5381412;26;20465;-83
2024/04/09 01:35:53;;;;;;;9.30;2.90;;;10.80;99.90;;;;;;5380149;26;20471;-82
2024/04/09 01:38:20;;;;;;;12.70;3.73;;;10.80;99.90;;;;;;5380733;26;20332;-82
2024/04/09 01:40:49;;;;;;;9.97;3.33;;;10.80;99.90;;;;;;5380611;26;20476;-82
2024/04/09 01:43:15;;;;;;;9.50;3.43;;;10.80;99.90;;;;;;5384018;26;20554;-82
2024/04/09 01:45:41;;;;;;;14.93;3.80;;;10.80;99.90;;;;;;5393638;26;20467;-82
2024/04/09 01:48:07;;;;;;;7.70;3.30;;;10.70;99.90;;;;;;5381782;26;20603;-82
2024/04/09 01:50:36;;;;;;;15.47;3.40;;;10.70;99.90;;;;;;5381011;26;20739;-82
2024/04/09 01:53:03;;;;;;;7.83;3.10;;;10.70;99.90;;;;;;5385311;26;20285;-81
2024/04/09 01:55:29;;;;;;;12.23;3.67;;;10.70;99.90;;;;;;5381340;26;20468;-82
2024/04/09 02:00:24;;;;;;;8.17;3.40;;;10.90;99.90;;;;;;5277482;27;20299;-83
2024/04/09 02:02:54;;;;;;;7.07;3.03;;;11.10;99.90;;;;;;5250309;27;20476;-82
2024/04/09 02:05:20;;;;;;;10.27;3.20;;;11.30;99.90;;;;;;5277893;27;20229;-83
2024/04/09 02:07:47;;;;;;;14.20;4.00;;;11.40;99.90;;;;;;5279703;27;21018;-81
2024/04/09 02:10:13;;;;;;;8.53;2.97;;;11.40;99.90;;;;;;5280979;27;20468;-82
2024/04/09 02:12:39;;;;;;;10.60;3.63;;;11.40;99.90;;;;;;5255347;27;20522;-78
2024/04/09 02:15:06;;;;;;;7.87;3.20;;;11.20;99.90;;;;;;5248330;27;21012;-81
2024/04/09 02:17:31;;;;;;;10.83;3.93;;;11.10;99.90;;;;;;5280951;27;21070;-81
2024/04/09 02:19:57;;;;;;;13.40;3.33;;;11.10;99.90;;;;;;5279796;27;20479;-82
2024/04/09 02:22:22;;;;;;;11.10;2.77;;;11.10;99.90;;;;;;5279652;27;20816;-82
2024/04/09 02:24:48;;;;;;;16.13;3.30;;;11.10;99.90;;;;;;5252925;27;20256;-83
2024/04/09 02:27:13;;;;;;;11.97;3.57;;;11.10;99.90;;;;;;5250228;27;20744;-82
2024/04/09 02:29:39;;;;;;;7.37;3.20;;;11.10;99.90;;;;;;5254245;27;20231;-80
2024/04/09 02:32:05;;;;;;;12.40;2.93;;;11.20;99.90;;;;;;5275465;27;20563;-81
2024/04/09 02:34:35;;;;;;;10.87;3.20;;;11.30;99.90;;;;;;5279329;26;20233;-81
2024/04/09 02:37:04;;;;;;;12.43;3.70;;;11.30;99.90;;;;;;5279614;27;20237;-81
2024/04/09 02:39:31;;;;;;;7.07;3.00;;;11.40;99.90;;;;;;5256065;27;20475;-81
2024/04/09 02:41:57;;;;;;;11.17;3.20;;;11.40;99.90;;;;;;5244857;27;21010;-82
2024/04/09 02:44:22;;;;;;;10.47;3.87;;;11.50;99.90;;;;;;5278438;27;20466;-81
2024/04/09 02:46:49;;;;;;;7.87;2.70;;;11.60;99.90;;;;;;5278322;27;20473;-81
2024/04/09 02:49:15;;;;;;;9.73;3.30;;;11.70;99.90;;;;;;5279496;26;20232;-82
2024/04/09 02:51:41;;;;;;;13.40;3.60;;;11.70;99.90;;;;;;5280466;26;20517;-82
2024/04/09 02:54:06;;;;;;;9.43;3.23;;;11.70;99.90;;;;;;5249476;27;20239;-82
2024/04/09 02:56:32;;;;;;;12.80;3.50;;;11.70;99.90;;;;;;5279259;26;20342;-81
2024/04/09 02:59:00;;;;;;;7.00;3.23;;;11.80;99.90;;;;;;5279924;27;20337;-81
2024/04/09 03:01:25;;;;;;;9.07;3.77;;;11.80;99.90;;;;;;5264848;27;21106;-81
2024/04/09 03:03:51;;;;;;;7.50;3.13;;;11.80;99.90;;;;;;5271102;26;20233;-82
2024/04/09 03:06:16;;;;;;;10.57;3.57;;;11.80;99.90;;;;;;5248942;27;20346;-82
2024/04/09 03:08:43;;;;;;;15.07;4.80;;;11.90;99.90;;;;;;5253823;27;20276;-82
2024/04/09 03:11:19;;;;;;;9.77;2.90;;;11.90;99.90;;;;;;5273886;27;20635;-81
2024/04/09 03:13:47;;;;;;;14.27;3.10;;;11.90;99.90;;;;;;5279272;27;20573;-82
2024/04/09 03:16:16;;;;;;;10.07;2.60;;;11.80;99.90;;;;;;5294535;26;20468;-82
2024/04/09 03:18:43;;;;;;;13.20;3.33;;;11.80;99.90;;;;;;5313209;26;20465;-82
2024/04/09 03:21:09;;;;;;;11.20;3.53;;;11.90;99.90;;;;;;5284497;26;20514;-82
2024/04/09 03:23:34;;;;;;;7.33;3.17;;;12.00;99.90;;;;;;5297440;27;20493;-80
2024/04/09 03:26:01;;;;;;;9.70;3.27;;;12.00;99.90;;;;;;5285402;27;20534;-82
2024/04/09 03:28:26;;;;;;;14.33;3.63;;;12.00;99.90;;;;;;5284465;26;20231;-82
2024/04/09 03:30:56;;;;;;;10.20;3.17;;;12.10;99.90;;;;;;5300530;26;20525;-82
2024/04/09 03:33:22;;;;;;;10.90;4.93;;;12.10;99.90;;;;;;5287623;26;20326;-82
2024/04/09 03:35:56;;;;;;;16.20;3.60;;;12.20;99.90;;;;;;5281971;27;20488;-82
2024/04/09 03:38:21;;;;;;;7.60;2.80;;;12.20;99.90;;;;;;5308408;27;20268;-82
2024/04/09 03:40:53;;;;;;;8.93;3.60;;;12.20;99.90;;;;;;5308690;27;20481;-81
2024/04/09 03:43:20;;;;;;;12.07;3.50;;;12.30;99.90;;;;;;5309736;26;20230;-81
2024/04/09 03:46:03;;;;;;;17.13;4.30;;;12.40;99.90;;;;;;5310283;26;20587;-81
2024/04/09 03:48:29;;;;;;;10.83;3.70;;;12.40;99.90;;;;;;5297342;26;20986;-81
2024/04/09 03:50:55;;;;;;;9.93;3.80;;;12.40;99.90;;;;;;5310483;26;20469;-81
2024/04/09 03:53:20;;;;;;;11.70;3.73;;;12.50;99.90;;;;;;5308591;27;20231;-80
2024/04/09 03:56:12;;;;;;;6.03;3.03;;;12.50;99.90;;;;;;5309052;27;20914;-81
2024/04/09 03:58:39;;;;;;;10.83;3.73;;;12.50;99.90;;;;;;5285141;26;20313;-81
2024/04/09 04:01:06;;;;;;;8.87;3.30;;;12.50;99.90;;;;;;5305178;27;20529;-79
2024/04/09 04:03:32;;;;;;;8.40;2.80;;;12.60;99.90;;;;;;5286983;27;20571;-80
2024/04/09 04:06:00;;;;;;;7.17;3.50;;;12.90;99.90;;;;;;5302910;26;20477;-81
2024/04/09 04:08:32;;;;;;;14.13;4.10;;;12.90;99.90;;;;;;5308347;26;20496;-81
2024/04/09 04:10:59;;;;;;;9.87;3.77;;;12.80;99.90;;;;;;5306972;27;20474;-83
2024/04/09 04:13:27;;;;;;;11.33;3.90;;;12.80;99.90;;;;;;5309064;26;20529;-83
2024/04/09 04:16:12;;;;;;;16.20;4.53;;;12.90;99.90;;;;;;5297439;26;20470;-82
2024/04/09 04:18:41;;;;;;;10.90;4.10;;;12.80;99.90;;;;;;5308341;26;20461;-81
2024/04/09 04:21:08;;;;;;;10.33;3.50;;;12.80;99.90;;;;;;5303370;27;20596;-81
2024/04/09 04:23:34;;;;;;;13.17;4.63;;;12.70;99.90;;;;;;5271258;27;20470;-80
2024/04/09 04:26:08;;;;;;;8.83;3.73;;;12.70;99.90;;;;;;5308288;26;20471;-82
2024/04/09 04:28:39;;;;;;;12.73;4.00;;;12.80;99.90;;;;;;5283088;27;20241;-79
2024/04/09 04:31:09;;;;;;;8.23;3.80;;;12.80;99.90;;;;;;5279120;27;20484;-81
2024/04/09 04:33:39;;;;;;;16.73;4.17;;;12.80;99.90;;;;;;5283942;27;20478;-81
2024/04/09 04:36:05;;;;;;;11.57;4.07;;;12.80;99.90;;;;;;5297785;26;20471;-81
2024/04/09 04:38:31;;;;;;;9.43;4.80;;;12.80;99.90;;;;;;5295363;26;20991;-81
2024/04/09 04:40:57;;;;;;;15.80;3.63;;;12.90;99.90;;;;;;5286372;26;20531;-82
2024/04/09 04:43:23;;;;;;;13.07;4.00;;;13.00;99.90;;;;;;5287014;27;20474;-83
2024/04/09 04:45:49;;;;;;;11.97;3.63;;;13.20;99.90;;;;;;5287482;27;20717;-81
2024/04/09 04:48:16;;;;;;;15.60;5.80;;;13.50;99.90;;;;;;5301819;26;20486;-82
2024/04/09 04:50:42;;;;;;;15.47;4.63;;;13.60;99.90;;;;;;5290219;27;20821;-78
2024/04/09 04:53:08;;;;;;;21.23;4.60;;;13.60;99.90;;;;;;5304674;27;20477;-81
2024/04/09 04:55:34;;;;;;;12.43;4.70;;;13.50;99.90;;;;;;5289558;27;20241;-81
2024/04/09 04:58:00;;;;;;;12.97;3.90;;;13.40;99.90;;;;;;5285156;27;20472;-80
2024/04/09 05:00:27;;;;;;;13.70;4.63;;;13.40;99.90;;;;;;5299915;27;20342;-81
2024/04/09 05:02:53;;;;;;;11.30;4.53;;;13.50;99.90;;;;;;5287244;27;20593;-82
2024/04/09 05:05:18;;;;;;;11.40;5.83;;;13.40;99.90;;;;;;5295112;27;20478;-82
2024/04/09 05:07:44;;;;;;;11.90;5.70;;;13.40;99.90;;;;;;5281640;27;20542;-80
2024/04/09 05:10:13;;;;;;;9.53;4.27;;;13.40;99.90;;;;;;5295073;26;20228;-80
2024/04/09 05:12:48;;;;;;;13.27;4.00;;;13.30;99.90;;;;;;5276081;27;20246;-77
2024/04/09 05:15:14;;;;;;;10.97;4.10;;;13.40;99.90;;;;;;5301493;27;20477;-80
2024/04/09 05:17:40;;;;;;;11.90;4.30;;;13.50;99.90;;;;;;5307360;26;20468;-80
2024/04/09 05:20:09;;;;;;;17.23;5.27;;;13.70;99.90;;;;;;5302312;27;20700;-81
2024/04/09 05:22:39;;;;;;;17.00;5.00;;;13.90;99.90;;;;;;5286692;27;20589;-78
2024/04/09 05:25:06;;;;;;;19.73;5.10;;;14.00;99.90;;;;;;5279535;27;20470;-78
2024/04/09 05:27:32;;;;;;;25.93;5.70;;;14.20;99.90;;;;;;5301938;26;20508;-79
2024/04/09 05:29:58;;;;;;;16.30;6.93;;;14.40;99.90;;;;;;5297327;26;20834;-78
2024/04/09 05:32:24;;;;;;;15.73;5.83;;;14.60;99.90;;;;;;5300456;27;20470;-78
2024/04/09 05:34:50;;;;;;;11.33;6.63;;;14.80;99.90;;;;;;5285993;27;20231;-79
2024/04/09 05:37:16;;;;;;;15.93;7.80;;;14.90;99.90;;;;;;5298607;26;20589;-79
2024/04/09 05:39:48;;;;;;;14.50;6.83;;;15.10;99.90;;;;;;5300055;27;20236;-79
2024/04/09 05:42:14;;;;;;;14.73;4.80;;;15.20;99.90;;;;;;5283729;26;20934;-78
2024/04/09 05:44:40;;;;;;;13.70;5.07;;;15.30;99.90;;;;;;5289085;27;21004;-80
2024/04/09 05:47:05;;;;;;;22.17;5.90;;;15.60;99.90;;;;;;5303183;26;20521;-78
2024/04/09 05:49:32;;;;;;;11.33;4.67;;;15.80;99.90;;;;;;5299554;27;20227;-79
2024/04/09 05:51:58;;;;;;;21.93;4.60;;;16.00;99.90;;;;;;5289402;27;20576;-79
2024/04/09 05:54:24;;;;;;;18.10;4.33;;;16.20;99.90;;;;;;5297608;27;20458;-79
2024/04/09 05:56:49;;;;;;;21.10;4.40;;;16.50;99.90;;;;;;5296784;26;20244;-79
2024/04/09 05:59:15;;;;;;;15.03;5.10;;;16.70;99.90;;;;;;5293624;27;20242;-77
2024/04/09 06:01:40;;;;;;;13.20;4.30;;;17.10;99.90;;;;;;5299588;27;20231;-78
2024/04/09 06:04:06;;;;;;;13.93;4.60;;;17.50;99.90;;;;;;5292258;27;20220;-79
2024/04/09 06:06:32;;;;;;;13.23;4.80;;;18.00;99.90;;;;;;5299727;27;20684;-80
2024/04/09 06:08:57;;;;;;;12.23;3.63;;;18.30;99.50;;;;;;5292056;27;20233;-80
2024/04/09 06:11:23;;;;;;;11.83;4.17;;;18.60;99.90;;;;;;5287728;27;20262;-81
2024/04/09 06:13:56;;;;;;;12.23;4.63;;;18.70;98.70;;;;;;5283728;27;20235;-81
2024/04/09 06:16:21;;;;;;;11.20;3.80;;;18.90;97.70;;;;;;5289536;26;20518;-81
2024/04/09 06:18:48;;;;;;;15.30;4.63;;;19.00;97.10;;;;;;5294941;26;20470;-80
2024/04/09 06:21:14;;;;;;;14.23;4.37;;;19.00;97.40;;;;;;5284716;27;20736;-79
2024/04/09 06:23:39;;;;;;;11.93;3.50;;;19.00;99.70;;;;;;5292395;27;20524;-81
2024/04/09 06:26:05;;;;;;;10.60;3.67;;;18.80;99.30;;;;;;5290562;26;20525;-80
2024/04/09 06:28:31;;;;;;;16.40;4.77;;;18.70;99.90;;;;;;5295733;26;20605;-81
2024/04/09 06:30:57;;;;;;;11.00;3.70;;;18.60;99.90;;;;;;5292200;27;20233;-80
2024/04/09 06:33:22;;;;;;;9.90;3.23;;;18.60;99.30;;;;;;5286324;26;20958;-81
2024/04/09 06:35:48;;;;;;;10.17;4.23;;;18.60;99.80;;;;;;5292358;27;20476;-81
2024/04/09 06:38:17;;;;;;;8.40;3.63;;;18.50;99.90;;;;;;5293271;26;21059;-79
2024/04/09 06:40:43;;;;;;;11.80;4.00;;;18.30;99.90;;;;;;5290309;27;20261;-81
2024/04/09 06:43:10;;;;;;;13.70;4.27;;;18.30;99.90;;;;;;5285090;27;20472;-80
2024/04/09 06:45:36;;;;;;;12.20;4.00;;;18.30;99.90;;;;;;5288635;27;20279;-81
2024/04/09 06:48:01;;;;;;;9.37;4.20;;;18.20;99.90;;;;;;5287129;27;20467;-81
2024/04/09 06:50:27;;;;;;;7.37;4.93;;;18.20;99.90;;;;;;5284067;27;20243;-81
2024/04/09 06:52:53;;;;;;;9.60;4.27;;;18.20;99.90;;;;;;5283867;27;20292;-81
2024/04/09 06:55:19;;;;;;;12.57;3.50;;;18.10;99.90;;;;;;5290977;26;20233;-81
2024/04/09 06:57:45;;;;;;;26.23;19.90;;;18.10;99.90;;;;;;5287731;27;20852;-78
2024/04/09 07:00:14;;;;;;;13.10;4.00;;;18.10;99.90;;;;;;5274486;27;20824;-79
2024/04/09 07:02:40;;;;;;;10.00;4.00;;;18.10;99.90;;;;;;5282132;27;20529;-80
2024/04/09 07:05:07;;;;;;;7.90;3.00;;;18.00;99.90;;;;;;5269081;27;20477;-80
2024/04/09 07:07:34;;;;;;;7.93;2.80;;;18.00;99.90;;;;;;5270031;27;20520;-79
2024/04/09 07:10:00;;;;;;;10.13;3.00;;;18.00;99.90;;;;;;5284454;27;20593;-80
2024/04/09 07:12:27;;;;;;;12.40;3.30;;;18.00;99.90;;;;;;5285616;26;20468;-81
2024/04/09 07:14:52;;;;;;;14.63;3.33;;;18.10;99.90;;;;;;5278350;27;20481;-81
2024/04/09 07:17:19;;;;;;;10.97;4.10;;;18.10;99.90;;;;;;5279143;26;20889;-80
2024/04/09 07:19:45;;;;;;;13.87;3.43;;;18.20;99.90;;;;;;5279072;27;20280;-81
2024/04/09 07:22:10;;;;;;;12.80;3.43;;;18.00;98.70;;;;;;5274216;27;20472;-80
2024/04/09 07:24:36;;;;;;;11.20;3.23;;;18.00;99.90;;;;;;5289181;27;20229;-81
2024/04/09 07:27:02;;;;;;;10.90;3.63;;;18.00;99.90;;;;;;5285757;27;20654;-79
2024/04/09 07:29:28;;;;;;;11.80;4.40;;;17.90;99.90;;;;;;5290979;27;20790;-79
2024/04/09 07:31:54;;;;;;;9.23;3.67;;;17.90;99.90;;;;;;5277689;27;20582;-79
2024/04/09 07:34:20;;;;;;;9.53;3.87;;;17.80;99.30;;;;;;5282681;27;20559;-79
2024/04/09 07:36:45;;;;;;;12.37;3.23;;;17.90;99.80;;;;;;5272036;27;20240;-77
2024/04/09 07:39:14;;;;;;;12.93;4.10;;;17.90;99.90;;;;;;5287678;27;20279;-78
2024/04/09 07:41:41;;;;;;;18.33;5.37;;;17.90;99.10;;;;;;5299738;27;20665;-79
2024/04/09 07:44:06;;;;;;;21.10;9.40;;;18.00;98.50;;;;;;5278076;27;20480;-79
2024/04/09 07:46:32;;;;;;;22.07;7.20;;;18.10;99.30;;;;;;5287031;27;20527;-80
2024/04/09 07:49:00;;;;;;;8.93;3.23;;;18.20;98.50;;;;;;5283488;27;20230;-79
2024/04/09 07:51:26;;;;;;;14.13;4.40;;;18.30;97.10;;;;;;5273939;27;20283;-79
2024/04/09 07:53:51;;;;;;;10.27;2.67;;;18.50;95.60;;;;;;5272538;27;20912;-79
2024/04/09 07:56:17;;;;;;;9.70;3.40;;;18.70;93.60;;;;;;5281847;27;20526;-78
2024/04/09 08:01:12;;;;;;;10.30;3.10;;;19.00;94.20;;;;;;5215202;27;20634;-80
2024/04/09 08:03:37;;;;;;;6.63;3.37;;;19.20;93.60;;;;;;5202517;27;20475;-82
2024/04/09 08:06:04;;;;;;;14.33;3.37;;;19.40;92.70;;;;;;5207002;27;20241;-80
2024/04/09 08:08:29;;;;;;;18.40;4.80;;;19.50;93.60;;;;;;5240273;27;21101;-81
2024/04/09 08:10:55;;;;;;;12.53;3.47;;;19.50;94.00;;;;;;5229034;27;21031;-78
2024/04/09 08:13:21;;;;;;;10.70;5.43;;;19.60;93.20;;;;;;5218574;27;20269;-78
2024/04/09 08:15:46;;;;;;;19.60;6.70;;;19.80;91.50;;;;;;5225602;27;20252;-79
2024/04/09 08:18:12;;;;;;;18.53;6.80;;;19.90;93.70;;;;;;5224150;27;20348;-78
2024/04/09 08:20:39;;;;;;;34.10;9.30;;;20.00;91.30;;;;;;5224425;27;20242;-78
2024/04/09 08:23:05;;;;;;;32.03;7.63;;;20.10;90.90;;;;;;5230798;27;20340;-78
2024/04/09 08:25:31;;;;;;;13.30;4.00;;;20.20;90.70;;;;;;5211506;27;20486;-79
2024/04/09 08:28:01;;;;;;;13.13;3.90;;;20.30;90.30;;;;;;5212718;27;20286;-78
2024/04/09 08:30:26;;;;;;;10.30;3.50;;;20.40;90.70;;;;;;5204965;27;20483;-78
2024/04/09 08:32:52;;;;;;;10.57;3.50;;;20.50;90.30;;;;;;5218320;27;20530;-78
2024/04/09 08:35:18;;;;;;;15.73;3.90;;;20.60;90.60;;;;;;5209855;27;20286;-79
2024/04/09 08:37:44;;;;;;;15.07;4.17;;;20.70;83.70;;;;;;5225520;27;20825;-79
2024/04/09 08:40:11;;;;;;;18.27;7.03;;;20.80;86.70;;;;;;5232028;27;20877;-80
2024/04/09 08:42:40;;;;;;;9.87;2.90;;;21.00;87.50;;;;;;5208035;27;20466;-79
2024/04/09 08:45:14;;;;;;;9.60;3.53;;;21.00;86.00;;;;;;5235193;27;20914;-79
2024/04/09 08:47:43;;;;;;;11.40;3.70;;;21.10;86.00;;;;;;5215376;27;20523;-78
2024/04/09 08:50:09;;;;;;;13.33;3.37;;;21.10;83.90;;;;;;5227813;27;20582;-79
2024/04/09 08:52:36;;;;;;;9.33;3.00;;;21.10;82.70;;;;;;5218957;27;20482;-77
2024/04/09 08:55:08;;;;;;;14.00;3.10;;;21.20;85.20;;;;;;5220603;27;20485;-78
2024/04/09 08:57:34;;;;;;;18.00;4.13;;;21.20;83.00;;;;;;5216461;27;20477;-79
2024/04/09 09:00:04;;;;;;;18.60;4.10;;;21.20;82.70;;;;;;5238130;27;20524;-79
2024/04/09 09:02:29;;;;;;;19.53;3.50;;;21.20;84.20;;;;;;5243896;27;20558;-79
2024/04/09 09:04:55;;;;;;;10.27;3.67;;;21.20;82.00;;;;;;5214821;27;21288;-78
2024/04/09 09:07:24;;;;;;;14.33;3.40;;;21.20;83.90;;;;;;5220525;27;20296;-78
2024/04/09 09:09:58;;;;;;;11.90;3.03;;;21.20;83.40;;;;;;5212177;27;20243;-78
2024/04/09 09:12:24;;;;;;;9.17;3.77;;;21.20;84.70;;;;;;5220780;27;20462;-78
2024/04/09 09:14:52;;;;;;;10.00;3.57;;;21.20;82.40;;;;;;5229609;27;20518;-77
2024/04/09 09:17:18;;;;;;;11.20;3.80;;;21.20;85.70;;;;;;5221763;27;20239;-77
2024/04/09 09:19:43;;;;;;;21.73;5.97;;;21.20;83.30;;;;;;5217431;27;20598;-78
2024/04/09 09:22:11;;;;;;;164.03;25.03;;;21.30;83.70;;;;;;5223511;27;20238;-78
2024/04/09 09:24:37;;;;;;;39.23;7.47;;;21.20;82.60;;;;;;5216008;27;20243;-78
2024/04/09 09:27:10;;;;;;;10.60;4.40;;;21.20;83.50;;;;;;5229834;27;20867;-79
2024/04/09 09:29:37;;;;;;;26.13;14.33;;;21.20;83.10;;;;;;5217318;27;21028;-79
2024/04/09 09:32:04;;;;;;;13.93;3.80;;;21.20;83.70;;;;;;5222399;27;20529;-79
2024/04/09 09:34:37;;;;;;;13.87;4.60;;;21.20;82.90;;;;;;5215566;27;20537;-78
2024/04/09 09:37:07;;;;;;;9.60;3.70;;;21.10;79.60;;;;;;5207137;27;20483;-78
2024/04/09 09:39:35;;;;;;;19.27;4.13;;;21.00;81.70;;;;;;5214657;27;20886;-78
2024/04/09 09:42:01;;;;;;;11.90;3.10;;;21.00;82.80;;;;;;5235009;27;20478;-79
2024/04/09 09:44:29;;;;;;;14.27;3.73;;;21.10;83.40;;;;;;5227206;27;21038;-78
2024/04/09 09:46:56;;;;;;;13.77;4.40;;;21.10;83.00;;;;;;5216511;27;20315;-78
2024/04/09 09:49:23;;;;;;;11.60;3.80;;;21.10;82.70;;;;;;5207696;27;20537;-78
2024/04/09 09:51:50;;;;;;;13.03;3.87;;;21.10;85.20;;;;;;5207764;27;20583;-77
2024/04/09 09:54:15;;;;;;;11.43;3.90;;;21.20;81.30;;;;;;5221167;27;20465;-77
2024/04/09 09:56:48;;;;;;;12.93;3.93;;;21.10;82.20;;;;;;5217050;27;20483;-76
2024/04/09 09:59:16;;;;;;;19.17;3.83;;;21.00;81.10;;;;;;5231059;27;20237;-76
2024/04/09 10:01:48;;;;;;;8.97;3.30;;;21.00;83.10;;;;;;5224073;27;20527;-77
2024/04/09 10:04:22;;;;;;;14.50;3.73;;;21.00;86.40;;;;;;5224454;27;20467;-77
2024/04/09 10:06:58;;;;;;;14.20;4.57;;;21.10;86.00;;;;;;5233086;27;20537;-79
2024/04/09 10:09:43;;;;;;;12.80;3.17;;;21.10;85.10;;;;;;5220197;27;20509;-78
2024/04/09 10:12:31;;;;;;;13.90;4.20;;;21.30;87.00;;;;;;5228573;27;20466;-78
2024/04/09 10:15:00;;;;;;;18.13;4.30;;;21.30;85.80;;;;;;5230040;27;20453;-79
2024/04/09 10:17:52;;;;;;;14.40;4.33;;;21.20;86.10;;;;;;5221961;27;20474;-79
2024/04/09 10:20:20;;;;;;;13.80;4.47;;;21.10;85.90;;;;;;5208027;27;20827;-78
2024/04/09 10:22:47;;;;;;;16.10;3.80;;;21.10;83.80;;;;;;5227607;27;20466;-78
2024/04/09 10:25:20;;;;;;;16.33;4.10;;;21.10;83.80;;;;;;5230729;27;20518;-79
2024/04/09 10:27:47;;;;;;;11.57;3.63;;;21.20;87.80;;;;;;5224094;27;21053;-78
2024/04/09 10:30:16;;;;;;;15.20;3.87;;;21.30;84.80;;;;;;5216548;27;20588;-78
2024/04/09 10:32:56;;;;;;;14.63;4.63;;;21.30;85.20;;;;;;5200371;27;20535;-78
2024/04/09 10:35:23;;;;;;;13.77;3.63;;;21.20;85.20;;;;;;5214301;27;20513;-77
2024/04/09 10:37:52;;;;;;;17.37;3.90;;;21.10;84.90;;;;;;5226739;27;20527;-78
2024/04/09 10:40:17;;;;;;;14.50;3.97;;;21.00;84.40;;;;;;5221995;27;20523;-79
2024/04/09 10:42:46;;;;;;;11.60;3.70;;;21.00;88.00;;;;;;5220546;27;20465;-79
2024/04/09 10:45:12;;;;;;;12.90;4.53;;;21.10;88.50;;;;;;5225339;27;20269;-79
2024/04/09 10:47:38;;;;;;;11.63;3.80;;;21.20;85.20;;;;;;5232103;27;20478;-79
2024/04/09 10:50:05;;;;;;;15.03;4.90;;;21.10;87.20;;;;;;5216411;27;20238;-79
2024/04/09 10:52:32;;;;;;;13.17;4.93;;;21.10;88.50;;;;;;5221826;27;20463;-79
2024/04/09 10:55:06;;;;;;;9.53;4.20;;;21.30;89.80;;;;;;5232346;27;20474;-79
2024/04/09 10:57:32;;;;;;;11.50;3.80;;;21.30;88.10;;;;;;5221432;27;20529;-79
2024/04/09 11:00:13;;;;;;;8.33;3.20;;;21.30;88.90;;;;;;5234904;27;21019;-77
2024/04/09 11:02:43;;;;;;;7.70;3.27;;;21.30;88.70;;;;;;5212408;27;20243;-78
2024/04/09 11:05:16;;;;;;;11.97;3.33;;;21.30;86.90;;;;;;5213565;27;20490;-79
2024/04/09 11:07:43;;;;;;;16.13;4.97;;;21.10;88.50;;;;;;5212752;27;20491;-79
2024/04/09 11:10:14;;;;;;;11.17;3.70;;;21.00;87.30;;;;;;5218921;27;20829;-80
2024/04/09 11:12:51;;;;;;;10.67;3.33;;;21.00;87.40;;;;;;5223482;27;20519;-78
2024/04/09 11:15:20;;;;;;;18.20;3.57;;;21.00;86.70;;;;;;5215114;27;20531;-78
2024/04/09 11:17:47;;;;;;;14.43;4.37;;;21.10;87.10;;;;;;5224190;27;20457;-79
2024/04/09 11:20:14;;;;;;;16.83;4.00;;;21.10;89.40;;;;;;5215570;27;20475;-79
2024/04/09 11:22:45;;;;;;;13.73;5.63;;;21.50;88.50;;;;;;5220569;27;20467;-79
2024/04/09 11:25:11;;;;;;;12.40;3.97;;;21.60;89.00;;;;;;5221245;27;20482;-80
2024/04/09 11:27:38;;;;;;;14.10;4.33;;;21.70;88.70;;;;;;5216668;27;20463;-79
2024/04/09 11:30:07;;;;;;;13.03;4.10;;;22.10;88.20;;;;;;5224967;27;20525;-79
2024/04/09 11:32:36;;;;;;;11.53;4.63;;;22.10;85.20;;;;;;5216318;27;20535;-78
2024/04/09 11:35:02;;;;;;;16.13;4.37;;;22.30;89.20;;;;;;5212842;27;20594;-78
2024/04/09 11:37:28;;;;;;;16.83;4.90;;;22.40;86.80;;;;;;5224088;27;20593;-79
2024/04/09 11:39:53;;;;;;;18.53;4.47;;;22.70;88.80;;;;;;5223343;27;20483;-78
2024/04/09 11:42:19;;;;;;;13.50;4.10;;;23.00;85.70;;;;;;5210866;27;20281;-77
2024/04/09 11:44:45;;;;;;;10.50;4.00;;;23.10;89.30;;;;;;5218966;27;20471;-79
2024/04/09 11:47:10;;;;;;;13.67;4.50;;;23.50;88.60;;;;;;5227047;27;20241;-78
2024/04/09 11:49:36;;;;;;;17.60;5.27;;;23.60;86.10;;;;;;5219713;27;20957;-79
2024/04/09 11:52:02;;;;;;;17.13;4.60;;;23.50;84.70;;;;;;5219246;27;20285;-79
2024/04/09 11:54:28;;;;;;;16.83;4.30;;;23.20;83.70;;;;;;5216244;27;20319;-78
2024/04/09 11:56:53;;;;;;;14.07;3.70;;;23.30;83.90;;;;;;5225008;27;20239;-78
2024/04/09 11:59:19;;;;;;;10.93;4.63;;;23.20;85.90;;;;;;5226348;27;20254;-81
2024/04/09 12:01:45;;;;;;;15.50;4.27;;;22.90;88.60;;;;;;5217274;27;20243;-81
2024/04/09 12:04:10;;;;;;;12.93;4.30;;;22.60;88.60;;;;;;5221177;27;20233;-81
2024/04/09 12:06:36;;;;;;;16.90;4.80;;;22.40;87.60;;;;;;5219288;27;20330;-81
2024/04/09 12:09:02;;;;;;;23.37;6.20;;;22.40;87.80;;;;;;5232410;27;20281;-81
2024/04/09 12:11:28;;;;;;;16.37;5.00;;;22.50;89.40;;;;;;5221531;27;20663;-81
2024/04/09 12:13:53;;;;;;;16.10;4.53;;;22.40;85.10;;;;;;5225234;27;20467;-80
2024/04/09 12:16:19;;;;;;;14.63;4.80;;;22.30;86.10;;;;;;5221898;27;20592;-80
2024/04/09 12:18:45;;;;;;;15.13;4.50;;;22.20;86.10;;;;;;5228232;27;20278;-80
2024/04/09 12:21:11;;;;;;;16.93;4.57;;;22.30;87.00;;;;;;5231049;27;20826;-81
2024/04/09 12:23:36;;;;;;;11.40;4.73;;;22.50;86.50;;;;;;5224545;27;22888;-81
2024/04/09 12:26:02;;;;;;;13.33;3.83;;;22.70;86.40;;;;;;5230100;27;20230;-81
2024/04/09 12:28:27;;;;;;;20.37;3.60;;;22.80;85.50;;;;;;5225523;27;20239;-81
2024/04/09 12:30:54;;;;;;;10.73;3.83;;;23.00;87.80;;;;;;5228078;27;20265;-79
2024/04/09 12:33:20;;;;;;;10.33;4.10;;;23.10;88.00;;;;;;5225992;27;20283;-81
2024/04/09 12:35:51;;;;;;;17.40;4.10;;;23.00;85.60;;;;;;5226523;27;20511;-80
2024/04/09 12:38:17;;;;;;;17.37;4.60;;;22.90;85.80;;;;;;5221272;27;20334;-81
2024/04/09 12:40:42;;;;;;;15.47;3.87;;;22.60;87.70;;;;;;5222967;27;20518;-80
2024/04/09 12:43:08;;;;;;;15.73;4.50;;;22.50;86.70;;;;;;5221805;27;20277;-81